Time;durP1;ratioP1;P1;durP2;ratioP2;P2;SDS_P1;SDS_P2;PMS_P1;PMS_P2;Temp;Humidity;BMP_temperature;BMP_pressure;BME280_temperature;BME280_humidity;BME280_pressure;Samples;Min_cycle;Max_cycle;Signal;HPM_P1;HPM_P2
2022/01/03 00:01:07;;;;;;;7.25;1.58;;;8.60;99.90;;;;;;5112512;28;20460;-74
2022/01/03 00:03:33;;;;;;;6.65;1.70;;;8.70;99.90;;;;;;5091822;28;20857;-74
2022/01/03 00:05:59;;;;;;;9.02;1.70;;;8.70;99.90;;;;;;5107892;28;20047;-74
2022/01/03 00:08:25;;;;;;;6.47;1.83;;;8.80;99.90;;;;;;5118033;27;20046;-74
2022/01/03 00:10:51;;;;;;;6.38;1.52;;;8.90;99.90;;;;;;5116713;28;20110;-74
2022/01/03 00:13:19;;;;;;;10.10;1.65;;;8.90;99.90;;;;;;5134270;27;20442;-74
2022/01/03 00:15:45;;;;;;;4.78;1.10;;;9.00;99.90;;;;;;5095681;28;20416;-74
2022/01/03 00:18:11;;;;;;;9.52;1.92;;;9.00;99.90;;;;;;5092522;28;20039;-74
2022/01/03 00:20:38;;;;;;;10.63;2.10;;;9.00;99.90;;;;;;5096837;28;20238;-74
2022/01/03 00:23:09;;;;;;;8.57;1.73;;;9.00;99.90;;;;;;5103448;28;20040;-74
2022/01/03 00:25:42;;;;;;;9.95;2.30;;;9.00;99.90;;;;;;5095826;28;20097;-74
2022/01/03 00:28:10;;;;;;;11.65;2.03;;;9.10;99.90;;;;;;5108876;28;20043;-74
2022/01/03 00:30:38;;;;;;;10.90;2.10;;;9.10;99.90;;;;;;5099103;28;20046;-74
2022/01/03 00:33:04;;;;;;;9.35;1.50;;;9.20;99.90;;;;;;5086276;28;20040;-74
2022/01/03 00:35:31;;;;;;;11.88;2.00;;;9.20;99.90;;;;;;5078618;28;20118;-74
2022/01/03 00:38:00;;;;;;;15.27;2.35;;;9.30;99.90;;;;;;5095472;28;20035;-74
2022/01/03 00:40:26;;;;;;;10.05;2.10;;;9.30;99.90;;;;;;5095509;28;20051;-74
2022/01/03 00:42:52;;;;;;;12.25;1.92;;;9.30;99.90;;;;;;5096608;28;20040;-73
2022/01/03 00:45:19;;;;;;;14.23;1.70;;;9.30;99.90;;;;;;5114710;28;20442;-73
2022/01/03 00:47:47;;;;;;;14.02;2.47;;;9.30;99.90;;;;;;5097133;28;20441;-74
2022/01/03 00:50:15;;;;;;;12.50;1.75;;;9.20;99.90;;;;;;5097861;28;20472;-74
2022/01/03 00:52:42;;;;;;;14.75;2.50;;;9.20;99.90;;;;;;5115942;28;20039;-73
2022/01/03 00:55:08;;;;;;;14.38;2.38;;;9.20;99.90;;;;;;5093962;28;20081;-74
2022/01/03 00:57:59;;;;;;;14.82;2.78;;;9.30;99.90;;;;;;5094903;28;20513;-73
2022/01/03 01:00:25;;;;;;;11.70;2.03;;;9.40;99.90;;;;;;5084507;28;20496;-74
2022/01/03 01:03:10;;;;;;;15.18;2.28;;;9.40;99.90;;;;;;5115509;28;20043;-74
2022/01/03 01:05:41;;;;;;;11.40;2.00;;;9.40;99.90;;;;;;5097711;28;20391;-74
2022/01/03 01:08:07;;;;;;;16.90;2.30;;;9.40;99.90;;;;;;5085582;28;20045;-73
2022/01/03 01:10:44;;;;;;;13.27;2.38;;;9.40;99.90;;;;;;5101307;28;20092;-73
2022/01/03 01:13:12;;;;;;;17.40;2.90;;;9.40;99.90;;;;;;5113520;28;20518;-74
2022/01/03 01:15:39;;;;;;;13.57;2.25;;;9.40;99.90;;;;;;5107527;28;20508;-74
2022/01/03 01:18:05;;;;;;;16.02;2.33;;;9.40;99.90;;;;;;5094880;28;20105;-73
2022/01/03 01:20:33;;;;;;;18.83;2.40;;;9.50;99.90;;;;;;5128161;27;20032;-73
2022/01/03 01:22:59;;;;;;;14.77;2.75;;;9.40;99.90;;;;;;5085293;28;20080;-73
2022/01/03 01:27:46;;;;;;;10.43;2.33;;;9.40;99.90;;;;;;5093842;28;20044;-73
2022/01/03 01:28:13;;;;;;;15.18;2.78;;;9.60;99.90;;;;;;5097714;28;20515;-73
2022/01/03 01:30:39;;;;;;;14.50;2.22;;;9.50;99.90;;;;;;5082263;28;20028;-73
2022/01/03 01:33:07;;;;;;;12.15;2.13;;;9.50;99.90;;;;;;5097916;28;20044;-73
2022/01/03 01:35:47;;;;;;;15.50;2.40;;;9.50;99.90;;;;;;5092577;28;20043;-73
2022/01/03 01:38:16;;;;;;;12.40;2.13;;;9.40;99.90;;;;;;5093792;28;20040;-73
2022/01/03 01:40:52;;;;;;;14.20;3.30;;;9.40;99.90;;;;;;5113653;28;20488;-73
2022/01/03 01:43:45;;;;;;;13.07;2.10;;;9.50;99.90;;;;;;5112588;28;20032;-73
2022/01/03 01:46:14;;;;;;;15.50;2.60;;;9.60;99.90;;;;;;5090407;28;20044;-73
2022/01/03 01:48:43;;;;;;;18.17;2.88;;;9.50;99.90;;;;;;5094556;28;20038;-73
2022/01/03 01:51:11;;;;;;;16.23;2.67;;;9.50;99.90;;;;;;5103221;28;20484;-73
2022/01/03 01:53:47;;;;;;;10.43;2.28;;;9.60;99.90;;;;;;5094097;28;20071;-73
2022/01/03 01:56:21;;;;;;;19.88;2.88;;;9.70;99.90;;;;;;5102959;28;20104;-73
2022/01/03 01:59:31;;;;;;;19.33;3.53;;;9.70;99.90;;;;;;5094224;28;20127;-73
2022/01/03 02:02:07;;;;;;;14.73;2.40;;;9.50;99.90;;;;;;5100892;28;20054;-73
2022/01/03 02:04:48;;;;;;;13.40;2.45;;;9.60;99.90;;;;;;5114286;28;20036;-73
2022/01/03 02:07:52;;;;;;;18.02;3.42;;;9.60;99.90;;;;;;5130790;27;20526;-73
2022/01/03 02:10:24;;;;;;;20.17;2.80;;;9.70;99.90;;;;;;5066247;28;20055;-73
2022/01/03 02:12:50;;;;;;;15.88;3.15;;;9.60;99.90;;;;;;5082501;28;20039;-73
2022/01/03 02:15:18;;;;;;;18.35;2.67;;;9.70;99.90;;;;;;5146782;27;20039;-73
2022/01/03 02:17:46;;;;;;;15.77;2.60;;;9.70;99.90;;;;;;5096073;28;20035;-73
2022/01/03 02:20:13;;;;;;;12.75;1.95;;;9.80;99.90;;;;;;5111726;28;20035;-73
2022/01/03 02:22:40;;;;;;;16.10;2.20;;;9.70;99.90;;;;;;5114353;28;20458;-73
2022/01/03 02:25:08;;;;;;;21.60;3.95;;;9.70;99.90;;;;;;5099369;28;20040;-73
2022/01/03 02:27:35;;;;;;;14.82;2.45;;;9.80;99.90;;;;;;5108863;28;20043;-73
2022/01/03 02:30:01;;;;;;;15.43;2.53;;;9.60;99.90;;;;;;5112577;28;20044;-73
2022/01/03 02:32:26;;;;;;;14.63;1.70;;;9.80;99.90;;;;;;5086741;28;20031;-73
2022/01/03 02:34:52;;;;;;;18.63;3.30;;;9.80;99.90;;;;;;5109949;28;20415;-73
2022/01/03 02:37:18;;;;;;;15.38;4.15;;;9.80;99.90;;;;;;5104935;28;20503;-73
2022/01/03 02:39:44;;;;;;;20.90;2.60;;;9.70;99.90;;;;;;5096608;28;20035;-73
2022/01/03 02:42:10;;;;;;;14.55;2.50;;;9.70;99.90;;;;;;5137116;27;20467;-73
2022/01/03 02:44:36;;;;;;;20.38;3.60;;;9.70;99.90;;;;;;5096358;28;20499;-73
2022/01/03 02:47:01;;;;;;;19.75;2.75;;;9.70;99.90;;;;;;5119488;27;20051;-73
2022/01/03 02:49:27;;;;;;;13.38;2.33;;;9.70;99.90;;;;;;5093273;28;20043;-73
2022/01/03 02:51:53;;;;;;;19.10;3.38;;;9.70;99.90;;;;;;5109833;27;20131;-73
2022/01/03 02:54:18;;;;;;;16.60;3.70;;;10.00;99.90;;;;;;5092950;28;20044;-73
2022/01/03 02:56:44;;;;;;;14.13;2.22;;;9.80;99.90;;;;;;5093533;28;20527;-73
2022/01/03 02:59:15;;;;;;;18.10;3.45;;;9.80;99.90;;;;;;5075936;28;20032;-73
2022/01/03 03:01:43;;;;;;;11.38;1.90;;;9.70;99.90;;;;;;5076083;28;20039;-73
2022/01/03 03:04:08;;;;;;;19.25;3.15;;;9.80;99.90;;;;;;5093069;28;20048;-73
2022/01/03 03:06:34;;;;;;;19.38;3.05;;;9.70;99.90;;;;;;5076926;28;20115;-73
2022/01/03 03:09:04;;;;;;;17.80;3.00;;;9.70;99.90;;;;;;5092604;28;20044;-73
2022/01/03 03:11:36;;;;;;;15.55;2.60;;;9.70;99.90;;;;;;5109738;28;20414;-73
2022/01/03 03:14:02;;;;;;;19.00;3.53;;;9.50;99.90;;;;;;5093589;28;20043;-73
2022/01/03 03:16:28;;;;;;;15.50;2.30;;;9.50;99.90;;;;;;5131097;27;20031;-73
2022/01/03 03:18:54;;;;;;;14.63;2.20;;;9.60;99.90;;;;;;5111751;28;20040;-73
2022/01/03 03:21:20;;;;;;;20.52;3.10;;;9.70;99.90;;;;;;5112857;28;20038;-73
2022/01/03 03:23:45;;;;;;;19.90;2.97;;;9.60;99.90;;;;;;5112294;28;20035;-73
2022/01/03 03:26:12;;;;;;;18.52;3.05;;;9.50;99.90;;;;;;5094538;28;20446;-73
2022/01/03 03:28:37;;;;;;;18.45;2.63;;;9.70;99.90;;;;;;5129817;27;20040;-73
2022/01/03 03:31:03;;;;;;;14.10;3.03;;;9.60;99.90;;;;;;5127983;27;20055;-73
2022/01/03 03:33:31;;;;;;;19.17;2.75;;;9.50;99.90;;;;;;5092681;28;20043;-73
2022/01/03 03:35:58;;;;;;;9.15;2.08;;;9.40;99.90;;;;;;5092266;28;20125;-73
2022/01/03 03:38:25;;;;;;;19.30;3.72;;;9.60;99.90;;;;;;5075634;28;20440;-73
2022/01/03 03:40:55;;;;;;;17.00;2.90;;;9.60;99.90;;;;;;5092507;28;20089;-73
2022/01/03 03:43:21;;;;;;;17.40;3.20;;;9.50;99.90;;;;;;5077420;28;20400;-73
2022/01/03 03:45:50;;;;;;;19.00;3.47;;;9.50;99.90;;;;;;5126141;27;20063;-73
2022/01/03 03:48:17;;;;;;;16.45;3.03;;;9.60;99.90;;;;;;5092262;28;20059;-73
2022/01/03 03:50:43;;;;;;;20.23;2.67;;;9.50;99.90;;;;;;5092834;28;20126;-73
2022/01/03 03:53:09;;;;;;;15.80;2.63;;;9.40;99.90;;;;;;5106273;28;20088;-73
2022/01/03 03:55:34;;;;;;;17.77;3.25;;;9.40;99.90;;;;;;5098187;28;20131;-73
2022/01/03 03:58:02;;;;;;;16.30;2.80;;;9.40;99.90;;;;;;5146077;27;20042;-73
2022/01/03 04:00:27;;;;;;;17.45;3.17;;;9.40;99.90;;;;;;5075001;28;20086;-73
2022/01/03 04:02:53;;;;;;;19.30;3.25;;;9.40;99.90;;;;;;5088946;28;20288;-73
2022/01/03 04:05:19;;;;;;;21.50;2.92;;;9.40;99.90;;;;;;5107672;28;20122;-73
2022/01/03 04:07:44;;;;;;;17.08;2.55;;;9.50;99.90;;;;;;5111838;28;20047;-73
2022/01/03 04:10:11;;;;;;;18.80;2.45;;;9.50;99.90;;;;;;5088376;28;20044;-73
2022/01/03 04:12:38;;;;;;;17.60;2.70;;;9.50;99.90;;;;;;5075699;28;20042;-73
2022/01/03 04:15:04;;;;;;;18.23;3.28;;;9.60;99.90;;;;;;5112325;28;20119;-73
2022/01/03 04:17:30;;;;;;;20.65;3.20;;;9.50;99.90;;;;;;5094334;28;20032;-73
2022/01/03 04:19:55;;;;;;;20.05;4.03;;;9.50;99.90;;;;;;5112020;28;20046;-73
2022/01/03 04:22:21;;;;;;;13.85;2.35;;;9.50;99.90;;;;;;5111026;28;20111;-73
2022/01/03 04:24:47;;;;;;;19.65;4.15;;;9.70;99.90;;;;;;5095443;28;20436;-73
2022/01/03 04:27:13;;;;;;;18.33;3.10;;;9.50;99.90;;;;;;5087404;28;20048;-73
2022/01/03 04:29:38;;;;;;;20.30;3.42;;;9.50;99.90;;;;;;5091019;28;20565;-73
2022/01/03 04:32:04;;;;;;;21.92;4.13;;;9.70;99.90;;;;;;5077820;28;20050;-73
2022/01/03 04:34:30;;;;;;;17.92;2.80;;;9.40;99.90;;;;;;5084879;28;20055;-73
2022/01/03 04:36:55;;;;;;;23.45;3.45;;;9.50;99.90;;;;;;5121799;27;20035;-73
2022/01/03 04:39:21;;;;;;;21.38;3.53;;;9.50;99.90;;;;;;5082795;28;20036;-73
2022/01/03 04:41:47;;;;;;;14.05;2.60;;;9.50;99.90;;;;;;5066490;28;20036;-73
2022/01/03 04:44:12;;;;;;;19.98;3.42;;;9.70;99.90;;;;;;5086742;28;20079;-72
2022/01/03 04:46:38;;;;;;;15.52;3.10;;;9.60;99.90;;;;;;5099695;28;20210;-73
2022/01/03 04:49:06;;;;;;;20.58;3.85;;;9.50;99.90;;;;;;5099888;28;20100;-73
2022/01/03 04:51:32;;;;;;;17.63;3.75;;;9.60;99.90;;;;;;5066862;28;20040;-73
2022/01/03 04:53:57;;;;;;;26.42;3.50;;;9.70;99.90;;;;;;5071978;28;20036;-73
2022/01/03 04:56:27;;;;;;;21.75;3.20;;;9.60;99.90;;;;;;5073355;28;20040;-73
2022/01/03 04:58:53;;;;;;;21.08;3.85;;;9.50;99.90;;;;;;5088579;28;20046;-73
2022/01/03 05:01:19;;;;;;;12.43;2.72;;;9.40;99.90;;;;;;5073371;28;20059;-73
2022/01/03 05:03:44;;;;;;;19.63;4.20;;;9.50;99.90;;;;;;5073551;28;20039;-73
2022/01/03 05:06:10;;;;;;;19.98;3.15;;;9.60;99.90;;;;;;5089427;28;20040;-73
2022/01/03 05:08:36;;;;;;;18.48;3.03;;;9.60;99.90;;;;;;5113073;27;20039;-73
2022/01/03 05:11:01;;;;;;;20.25;3.45;;;9.60;99.90;;;;;;5083144;28;20177;-73
2022/01/03 05:13:31;;;;;;;22.08;2.92;;;9.60;99.90;;;;;;5141919;27;20036;-73
2022/01/03 05:15:58;;;;;;;18.55;3.80;;;9.70;99.90;;;;;;5073201;28;20050;-73
2022/01/03 05:18:23;;;;;;;14.32;3.25;;;9.60;99.90;;;;;;5087422;28;20039;-73
2022/01/03 05:20:49;;;;;;;23.85;4.22;;;9.70;99.90;;;;;;5077496;28;20050;-73
2022/01/03 05:23:15;;;;;;;22.65;3.90;;;9.60;99.90;;;;;;5102850;27;20395;-73
2022/01/03 05:25:40;;;;;;;12.70;2.15;;;9.60;99.90;;;;;;5127870;27;20120;-73
2022/01/03 05:28:06;;;;;;;18.65;2.85;;;9.70;99.90;;;;;;5087829;28;20752;-73
2022/01/03 05:30:32;;;;;;;20.95;3.45;;;9.60;99.90;;;;;;5098022;28;20126;-73
2022/01/03 05:32:57;;;;;;;27.35;4.53;;;9.70;99.90;;;;;;5103112;28;20044;-73
2022/01/03 05:35:23;;;;;;;11.23;2.92;;;9.60;99.90;;;;;;5106764;27;20832;-73
2022/01/03 05:37:48;;;;;;;19.60;3.55;;;9.80;99.90;;;;;;5075909;28;20048;-73
2022/01/03 05:40:14;;;;;;;27.20;4.63;;;9.60;99.90;;;;;;5088440;28;20040;-73
2022/01/03 05:42:41;;;;;;;24.13;3.55;;;9.60;99.90;;;;;;5069077;28;20116;-73
2022/01/03 05:45:08;;;;;;;21.77;3.63;;;9.70;99.90;;;;;;5092810;28;20201;-73
2022/01/03 05:47:33;;;;;;;22.45;4.10;;;9.60;99.90;;;;;;5086482;28;20038;-73
2022/01/03 05:49:59;;;;;;;26.13;4.60;;;9.70;99.90;;;;;;5086771;28;20491;-73
2022/01/03 05:52:25;;;;;;;20.73;3.53;;;9.70;99.90;;;;;;5101975;27;20046;-73
2022/01/03 05:54:52;;;;;;;23.05;3.90;;;9.60;99.90;;;;;;5095201;28;20551;-73
2022/01/03 05:57:18;;;;;;;14.93;3.13;;;9.50;99.90;;;;;;5089606;28;20043;-73
2022/01/03 05:59:43;;;;;;;18.98;3.13;;;9.70;99.90;;;;;;5085242;28;20556;-73
2022/01/03 06:02:09;;;;;;;29.55;3.92;;;9.80;99.90;;;;;;5087871;28;20380;-73
2022/01/03 06:04:59;;;;;;;25.10;3.72;;;9.80;99.90;;;;;;5119070;27;20044;-73
2022/01/03 06:07:21;;;;;;;18.02;3.88;;;9.70;99.90;;;;;;5090324;28;20062;-73
2022/01/03 06:09:47;;;;;;;21.55;3.80;;;9.70;99.90;;;;;;5077301;28;20035;-73
2022/01/03 06:12:13;;;;;;;22.08;4.30;;;9.70;99.90;;;;;;5112026;28;20096;-73
2022/01/03 06:14:39;;;;;;;22.77;3.90;;;9.70;99.90;;;;;;5111059;28;20035;-73
2022/01/03 06:17:06;;;;;;;21.65;4.25;;;9.60;99.90;;;;;;5090656;28;20047;-73
2022/01/03 06:19:35;;;;;;;20.25;3.78;;;9.50;99.90;;;;;;5085663;28;20089;-73
2022/01/03 06:22:07;;;;;;;18.90;2.75;;;9.70;99.90;;;;;;5078744;28;20048;-73
2022/01/03 06:24:33;;;;;;;23.63;4.95;;;9.60;99.90;;;;;;5070690;28;20036;-73
2022/01/03 06:26:58;;;;;;;17.38;3.15;;;9.70;99.90;;;;;;5068433;28;20557;-73
2022/01/03 06:29:24;;;;;;;17.15;3.08;;;9.80;99.90;;;;;;5085487;28;20084;-73
2022/01/03 06:31:50;;;;;;;24.20;5.75;;;9.80;99.90;;;;;;5106964;28;20031;-73
2022/01/03 06:34:17;;;;;;;18.05;3.45;;;9.70;99.90;;;;;;5093593;28;20488;-73
2022/01/03 06:36:43;;;;;;;14.10;2.40;;;9.70;99.90;;;;;;5078226;28;20135;-73
2022/01/03 06:39:11;;;;;;;19.48;2.85;;;9.90;99.90;;;;;;5118348;27;20043;-73
2022/01/03 06:41:41;;;;;;;20.27;3.53;;;9.80;99.90;;;;;;5118836;27;20403;-73
2022/01/03 06:44:07;;;;;;;11.98;2.45;;;9.70;99.90;;;;;;5085948;28;20155;-73
2022/01/03 06:46:33;;;;;;;19.52;3.17;;;9.70;99.90;;;;;;5104083;27;20449;-73
2022/01/03 06:49:00;;;;;;;25.35;3.92;;;9.60;99.90;;;;;;5071698;28;20074;-73
2022/01/03 06:51:31;;;;;;;29.50;5.20;;;9.60;99.90;;;;;;5090869;28;20039;-73
2022/01/03 06:53:56;;;;;;;11.68;2.45;;;9.50;99.90;;;;;;5086996;28;20035;-73
2022/01/03 06:56:22;;;;;;;17.55;3.03;;;9.60;99.90;;;;;;5073188;28;20411;-73
2022/01/03 06:58:48;;;;;;;20.20;4.07;;;9.60;99.90;;;;;;5102262;27;20046;-73
2022/01/03 07:01:13;;;;;;;29.10;4.43;;;9.70;99.90;;;;;;5085190;28;20040;-73
2022/01/03 07:03:39;;;;;;;24.58;3.60;;;9.60;99.90;;;;;;5075542;28;20108;-73
2022/01/03 07:06:04;;;;;;;19.23;3.28;;;9.50;99.90;;;;;;5119249;27;20044;-73
2022/01/03 07:08:30;;;;;;;26.45;4.20;;;9.70;99.90;;;;;;5100940;27;20047;-73
2022/01/03 07:10:55;;;;;;;13.40;2.63;;;9.60;99.90;;;;;;5086873;28;20036;-73
2022/01/03 07:13:24;;;;;;;14.77;2.75;;;9.60;99.90;;;;;;5128098;27;20044;-73
2022/01/03 07:21:17;;;;;;;20.42;3.63;;;9.70;99.90;;;;;;5120800;27;21829;-73
2022/01/03 07:23:43;;;;;;;16.70;3.53;;;9.70;99.90;;;;;;5116654;27;20040;-73
2022/01/03 07:26:08;;;;;;;10.95;2.63;;;9.80;99.90;;;;;;5087070;28;20043;-73
2022/01/03 07:28:34;;;;;;;17.50;2.85;;;9.80;99.90;;;;;;5072134;28;20067;-73
2022/01/03 07:31:00;;;;;;;24.27;5.55;;;9.80;99.90;;;;;;5089083;28;20051;-73
2022/01/03 07:33:26;;;;;;;19.17;3.50;;;9.70;99.90;;;;;;5074344;28;20048;-73
2022/01/03 07:35:52;;;;;;;18.20;2.95;;;9.70;99.90;;;;;;5089678;28;20043;-73
2022/01/03 07:38:18;;;;;;;20.90;3.78;;;9.60;99.90;;;;;;5086955;28;20043;-74
2022/01/03 07:40:43;;;;;;;26.55;4.00;;;9.60;99.90;;;;;;5068543;28;20583;-73
2022/01/03 07:43:09;;;;;;;19.90;4.10;;;9.40;99.90;;;;;;5088460;28;20128;-73
2022/01/03 07:45:34;;;;;;;15.55;3.03;;;9.60;99.90;;;;;;5095573;28;20135;-73
2022/01/03 07:48:00;;;;;;;20.80;3.45;;;9.70;99.90;;;;;;5089362;28;20067;-73
2022/01/03 07:50:26;;;;;;;26.58;3.58;;;9.70;99.90;;;;;;5093426;28;20066;-73
2022/01/03 07:52:51;;;;;;;16.88;3.53;;;9.70;99.90;;;;;;5067228;28;20404;-73
2022/01/03 07:55:18;;;;;;;14.90;3.42;;;9.60;99.90;;;;;;5105845;27;20163;-73
2022/01/03 07:57:44;;;;;;;26.52;3.92;;;9.60;99.90;;;;;;5115762;27;20047;-73
2022/01/03 08:00:12;;;;;;;18.88;3.75;;;9.60;99.90;;;;;;5102322;28;20040;-73
2022/01/03 08:02:40;;;;;;;21.27;3.58;;;9.70;99.90;;;;;;5083440;28;20040;-73
2022/01/03 08:05:08;;;;;;;15.60;3.20;;;9.60;99.90;;;;;;5073877;28;20088;-73
2022/01/03 08:07:35;;;;;;;20.98;4.15;;;9.70;99.90;;;;;;5089919;28;20544;-73
2022/01/03 08:10:01;;;;;;;14.68;2.78;;;9.60;99.90;;;;;;5094634;28;20118;-74
2022/01/03 08:12:26;;;;;;;18.88;3.25;;;9.60;99.90;;;;;;5087200;28;20035;-73
2022/01/03 08:14:52;;;;;;;22.83;3.70;;;9.70;99.90;;;;;;5096914;28;20039;-73
2022/01/03 08:17:17;;;;;;;16.13;3.05;;;9.70;99.90;;;;;;5082710;28;20468;-73
2022/01/03 08:19:43;;;;;;;21.63;3.15;;;9.70;99.90;;;;;;5115272;28;20031;-73
2022/01/03 08:22:08;;;;;;;25.23;3.67;;;9.80;99.90;;;;;;5097879;28;20052;-73
2022/01/03 08:24:34;;;;;;;17.83;3.05;;;9.80;99.90;;;;;;5091275;28;20075;-73
2022/01/03 08:26:59;;;;;;;13.82;3.08;;;9.90;99.90;;;;;;5082211;28;20032;-73
2022/01/03 08:29:25;;;;;;;17.33;2.67;;;9.90;99.90;;;;;;5091861;28;20040;-74
2022/01/03 08:31:51;;;;;;;24.15;4.03;;;10.00;99.90;;;;;;5094692;28;20050;-73
2022/01/03 08:34:16;;;;;;;22.65;3.78;;;10.00;99.90;;;;;;5090097;28;20046;-73
2022/01/03 08:36:43;;;;;;;26.08;3.58;;;9.90;99.90;;;;;;5096161;28;20544;-73
2022/01/03 08:39:09;;;;;;;19.02;3.25;;;10.00;99.90;;;;;;5089638;28;20503;-73
2022/01/03 08:41:35;;;;;;;20.42;3.97;;;9.90;99.90;;;;;;5103141;27;20063;-73
2022/01/03 08:44:01;;;;;;;24.42;3.78;;;9.90;99.90;;;;;;5091634;28;20592;-73
2022/01/03 08:46:26;;;;;;;18.02;2.70;;;9.90;99.90;;;;;;5088180;28;20051;-73
2022/01/03 08:48:53;;;;;;;17.42;3.25;;;9.80;99.90;;;;;;5088313;28;20109;-73
2022/01/03 08:51:18;;;;;;;18.33;3.25;;;9.90;99.90;;;;;;5101900;28;20032;-73
2022/01/03 08:53:44;;;;;;;16.48;3.08;;;9.90;99.90;;;;;;5112115;27;20407;-83
2022/01/03 08:56:10;;;;;;;24.92;4.25;;;9.80;99.90;;;;;;5094849;28;20040;-73
2022/01/03 08:58:35;;;;;;;19.38;3.05;;;10.00;99.90;;;;;;5095339;28;20481;-73
2022/01/03 09:01:01;;;;;;;22.63;4.15;;;10.00;99.90;;;;;;5100048;28;20036;-73
2022/01/03 09:03:26;;;;;;;21.33;3.63;;;9.90;99.90;;;;;;5148736;27;20464;-73
2022/01/03 09:05:54;;;;;;;17.73;2.92;;;9.90;99.90;;;;;;5078383;28;20032;-73
2022/01/03 09:08:22;;;;;;;21.95;3.72;;;10.00;99.90;;;;;;5124486;27;20075;-73
2022/01/03 09:10:49;;;;;;;25.27;4.05;;;10.00;99.90;;;;;;5110214;28;20045;-73
2022/01/03 09:13:15;;;;;;;24.95;3.22;;;10.10;99.90;;;;;;5107021;28;20050;-72
2022/01/03 09:15:44;;;;;;;9.35;1.40;;;10.20;99.90;;;;;;5115025;28;20042;-73
2022/01/03 09:18:15;;;;;;;15.75;3.30;;;10.20;99.90;;;;;;5086279;28;20046;-74
2022/01/03 09:20:40;;;;;;;20.33;3.42;;;10.10;99.90;;;;;;5079867;28;20721;-73
2022/01/03 09:23:28;;;;;;;20.75;4.28;;;10.10;99.90;;;;;;5131847;27;20035;-73
2022/01/03 09:28:51;;;;;;;15.25;2.80;;;10.20;99.90;;;;;;5094286;28;20044;-73
2022/01/03 09:31:37;;;;;;;17.30;2.55;;;10.20;99.90;;;;;;5095204;28;20116;-73
2022/01/03 09:34:06;;;;;;;17.58;3.50;;;10.30;99.90;;;;;;5098390;28;20089;-72
2022/01/03 09:36:32;;;;;;;16.60;3.33;;;10.20;99.90;;;;;;5082396;28;20399;-73
2022/01/03 09:38:59;;;;;;;18.52;3.88;;;10.20;99.90;;;;;;5095754;28;20137;-72
2022/01/03 09:41:27;;;;;;;22.60;3.88;;;10.30;99.90;;;;;;5102344;28;20088;-72
2022/01/03 09:44:00;;;;;;;14.98;2.78;;;10.30;99.90;;;;;;5092566;28;20028;-73
2022/01/03 09:46:31;;;;;;;23.33;3.30;;;10.30;99.90;;;;;;5097367;28;20402;-72
2022/01/03 09:48:56;;;;;;;11.98;2.35;;;10.20;99.90;;;;;;5117010;27;20116;-73
2022/01/03 09:51:27;;;;;;;17.85;3.03;;;10.30;99.90;;;;;;5148351;27;20125;-72
2022/01/03 09:53:53;;;;;;;28.10;3.60;;;10.10;99.90;;;;;;5093389;28;20110;-72
2022/01/03 09:56:20;;;;;;;21.38;3.65;;;10.20;99.90;;;;;;5093215;28;20382;-72
2022/01/03 09:58:46;;;;;;;19.02;3.45;;;10.10;99.90;;;;;;5090530;28;20391;-72
2022/01/03 10:01:12;;;;;;;22.50;4.43;;;10.30;99.90;;;;;;5126392;27;20039;-73
2022/01/03 10:03:41;;;;;;;20.45;3.80;;;10.20;99.90;;;;;;5088343;28;20114;-72
2022/01/03 10:06:07;;;;;;;19.02;3.30;;;10.10;99.90;;;;;;5096451;28;20044;-72
2022/01/03 10:08:33;;;;;;;19.33;3.72;;;10.10;99.90;;;;;;5094251;28;20047;-72
2022/01/03 10:10:58;;;;;;;21.20;3.30;;;10.20;99.90;;;;;;5130462;27;20040;-72
2022/01/03 10:13:24;;;;;;;17.58;3.25;;;10.10;99.90;;;;;;5139295;27;20088;-73
2022/01/03 10:15:49;;;;;;;16.52;3.38;;;10.30;99.90;;;;;;5112904;28;20047;-72
2022/01/03 10:18:20;;;;;;;12.90;2.33;;;10.20;99.90;;;;;;5087819;28;20039;-73
2022/01/03 10:20:46;;;;;;;15.55;2.47;;;10.40;99.90;;;;;;5113150;28;20035;-73
2022/01/03 10:23:15;;;;;;;18.77;2.85;;;10.40;99.90;;;;;;5094939;28;20040;-73
2022/01/03 10:25:42;;;;;;;21.08;3.70;;;10.40;99.90;;;;;;5080219;28;20074;-73
2022/01/03 10:28:08;;;;;;;16.33;3.22;;;10.30;99.90;;;;;;5092129;28;20035;-73
2022/01/03 10:30:43;;;;;;;24.98;3.95;;;10.20;99.90;;;;;;5079701;28;20514;-73
2022/01/03 10:33:12;;;;;;;12.63;2.25;;;10.30;99.90;;;;;;5093882;28;20044;-73
2022/01/03 10:35:41;;;;;;;20.73;3.40;;;10.40;99.90;;;;;;5078898;28;20040;-73
2022/01/03 10:38:09;;;;;;;13.65;2.22;;;10.20;99.90;;;;;;5112690;28;20455;-73
2022/01/03 10:40:35;;;;;;;22.52;2.92;;;10.40;99.90;;;;;;5080169;28;20403;-73
2022/01/03 10:43:22;;;;;;;19.95;3.03;;;10.30;99.90;;;;;;5075502;28;20071;-72
2022/01/03 10:45:50;;;;;;;21.33;3.70;;;10.30;99.90;;;;;;5103844;28;20105;-73
2022/01/03 10:48:45;;;;;;;18.08;3.28;;;10.20;99.90;;;;;;5075363;28;20040;-73
2022/01/03 10:51:11;;;;;;;11.93;2.60;;;10.40;99.90;;;;;;5079038;28;20474;-73
2022/01/03 10:53:43;;;;;;;20.10;3.50;;;10.60;99.90;;;;;;5138732;27;20130;-72
2022/01/03 10:56:29;;;;;;;11.82;2.47;;;10.40;99.90;;;;;;5144281;27;20501;-73
2022/01/03 10:58:57;;;;;;;14.45;3.10;;;10.40;99.90;;;;;;5108781;27;20127;-72
2022/01/03 11:01:26;;;;;;;23.10;3.38;;;10.50;99.90;;;;;;5084716;28;20043;-73
2022/01/03 11:03:53;;;;;;;22.02;4.03;;;10.30;99.90;;;;;;5087175;28;20032;-72
2022/01/03 11:11:38;;;;;;;18.95;3.55;;;10.40;99.90;;;;;;5107944;28;20109;-73
2022/01/03 11:14:04;;;;;;;18.35;3.63;;;10.50;99.90;;;;;;5093939;28;20043;-72
2022/01/03 11:16:32;;;;;;;16.33;3.47;;;10.40;99.90;;;;;;5109528;28;20048;-72
2022/01/03 11:18:57;;;;;;;18.60;3.22;;;10.40;99.90;;;;;;5106777;28;20046;-73
2022/01/03 11:21:24;;;;;;;8.18;2.10;;;10.40;99.90;;;;;;5145266;27;20028;-73
2022/01/03 11:24:07;;;;;;;17.48;2.80;;;10.50;99.90;;;;;;5114359;27;20066;-72
2022/01/03 11:26:35;;;;;;;;;;;10.50;99.90;;;;;;5123125;27;20039;-72
2022/01/03 11:29:02;;;;;;;14.10;3.35;;;10.50;99.90;;;;;;5080335;28;19915;-73
2022/01/03 11:31:33;;;;;;;18.38;2.42;;;10.50;99.90;;;;;;5093013;28;21467;-73
2022/01/03 11:33:59;;;;;;;14.27;3.20;;;10.50;99.90;;;;;;5092872;28;20044;-73
2022/01/03 11:36:26;;;;;;;17.83;3.50;;;10.60;99.90;;;;;;5111223;28;20048;-73
2022/01/03 11:38:55;;;;;;;19.98;4.07;;;10.40;99.90;;;;;;5094504;28;20114;-73
2022/01/03 11:41:20;;;;;;;11.65;2.67;;;10.40;99.90;;;;;;5111385;28;20126;-72
2022/01/03 11:43:46;;;;;;;20.77;4.13;;;10.50;99.90;;;;;;5111699;28;20118;-72
2022/01/03 11:46:12;;;;;;;20.15;2.97;;;10.30;99.90;;;;;;5092745;28;20092;-72
2022/01/03 11:48:38;;;;;;;12.85;2.22;;;10.40;99.90;;;;;;5106238;28;20052;-73
2022/01/03 11:51:11;;;;;;;13.82;2.22;;;10.50;99.90;;;;;;5100189;28;20039;-73
2022/01/03 11:53:48;;;;;;;19.88;3.08;;;10.40;99.90;;;;;;5128435;27;20396;-73
2022/01/03 11:56:19;;;;;;;25.33;3.22;;;10.50;99.90;;;;;;5103208;28;20527;-73
2022/01/03 11:59:00;;;;;;;20.48;3.95;;;10.60;99.90;;;;;;5094432;28;20027;-73
2022/01/03 12:04:35;;;;;;;24.95;3.55;;;10.80;99.90;;;;;;5131632;27;20388;-72
2022/01/03 12:07:15;;;;;;;11.32;2.42;;;10.70;99.90;;;;;;5111886;28;20408;-73
2022/01/03 12:09:44;;;;;;;17.13;3.05;;;10.80;99.90;;;;;;5117978;28;20040;-72
2022/01/03 12:12:27;;;;;;;16.95;2.97;;;10.70;99.90;;;;;;5099198;28;20115;-72
2022/01/03 12:14:56;;;;;;;14.55;2.85;;;10.60;99.90;;;;;;5101830;28;20047;-72
2022/01/03 12:17:23;;;;;;;19.80;4.45;;;10.60;99.90;;;;;;5085089;27;20032;-73
2022/01/03 12:19:49;;;;;;;20.30;3.50;;;10.60;99.90;;;;;;5121980;27;20039;-73
2022/01/03 12:22:22;;;;;;;18.92;3.33;;;10.60;99.90;;;;;;5091699;28;20043;-72
2022/01/03 12:24:55;;;;;;;16.30;3.50;;;10.80;99.90;;;;;;5114186;27;20496;-72
2022/01/03 12:27:35;;;;;;;16.05;2.92;;;10.90;99.90;;;;;;5106491;28;20510;-72
2022/01/03 12:30:05;;;;;;;16.80;2.33;;;10.90;99.90;;;;;;5100726;28;20551;-73
2022/01/03 12:32:40;;;;;;;17.83;3.05;;;10.90;99.90;;;;;;5084106;28;20039;-72
2022/01/03 12:35:16;;;;;;;17.95;3.33;;;10.80;99.90;;;;;;5118797;28;20036;-72
2022/01/03 12:37:52;;;;;;;15.23;3.00;;;10.90;99.90;;;;;;5097926;28;20398;-72
2022/01/03 12:40:25;;;;;;;14.15;2.65;;;10.90;99.90;;;;;;5098642;28;20389;-72
2022/01/03 12:42:54;;;;;;;14.90;3.58;;;10.80;99.90;;;;;;5085790;28;20031;-72
2022/01/03 12:45:29;;;;;;;18.77;3.63;;;10.80;99.90;;;;;;5100732;28;20087;-72
2022/01/03 12:48:10;;;;;;;19.92;3.20;;;10.80;99.90;;;;;;5117397;28;20175;-72
2022/01/03 12:50:35;;;;;;;20.23;3.20;;;10.80;99.90;;;;;;5099193;28;20043;-72
2022/01/03 12:53:02;;;;;;;18.20;3.58;;;10.70;99.90;;;;;;5140071;27;20561;-72
2022/01/03 12:55:37;;;;;;;15.40;2.55;;;10.70;99.90;;;;;;5129624;27;20077;-72
2022/01/03 12:58:23;;;;;;;16.38;2.45;;;10.80;99.90;;;;;;5153164;27;20069;-72
2022/01/03 13:00:51;;;;;;;14.70;3.45;;;10.80;99.90;;;;;;5134166;27;20096;-72
2022/01/03 13:03:22;;;;;;;17.05;2.90;;;10.80;99.90;;;;;;5098809;28;20032;-72
2022/01/03 13:06:13;;;;;;;18.70;2.97;;;10.70;99.90;;;;;;5081585;28;20044;-72
2022/01/03 13:08:47;;;;;;;13.65;2.95;;;10.70;99.90;;;;;;5100593;28;20043;-72